createdAt,value
2017-12-19T01:37:37.498Z,4.32
2017-12-19T01:37:38.072Z,4.33
2017-12-19T01:37:38.670Z,4.28
2017-12-19T01:37:39.271Z,4.34
2017-12-19T01:37:39.873Z,4.33
2017-12-19T01:37:40.470Z,4.33
2017-12-19T01:37:41.069Z,4.29
2017-12-19T01:37:41.668Z,4.26
2017-12-19T01:38:35.158Z,4.34
2017-12-19T01:38:35.724Z,4.28
2017-12-19T01:38:36.323Z,4.29
2017-12-19T01:38:36.924Z,4.39
2017-12-19T01:38:37.523Z,4.34
2017-12-19T01:38:38.122Z,4.37
2017-12-19T01:38:38.724Z,4.34
2017-12-19T01:38:39.322Z,4.36
2017-12-19T01:39:33.802Z,4.32
2017-12-19T01:39:34.400Z,4.29
2017-12-19T01:39:35.002Z,4.28
2017-12-19T01:39:35.601Z,4.40
2017-12-19T01:39:36.200Z,4.28
2017-12-19T01:39:36.799Z,4.33
2017-12-19T01:39:37.398Z,4.32
2017-12-19T01:39:37.998Z,4.29
2017-12-19T01:40:31.456Z,4.33
2017-12-19T01:40:32.060Z,4.34
2017-12-19T01:40:32.655Z,4.34
2017-12-19T01:40:33.254Z,4.26
2017-12-19T01:40:33.856Z,4.32
2017-12-19T01:40:34.451Z,4.33
2017-12-19T01:40:35.051Z,4.26
2017-12-19T01:40:35.652Z,4.28
2017-12-19T01:41:29.107Z,4.32
2017-12-19T01:41:29.706Z,4.34
2017-12-19T01:41:30.307Z,4.34
2017-12-19T01:41:30.906Z,4.32
2017-12-19T01:41:31.507Z,4.40
2017-12-19T01:41:32.104Z,4.28
2017-12-19T01:41:32.704Z,4.34
2017-12-19T01:41:33.304Z,4.32
2017-12-19T01:42:27.783Z,4.34
2017-12-19T01:42:28.380Z,4.33
2017-12-19T01:42:28.984Z,4.34
2017-12-19T01:42:29.586Z,4.37
2017-12-19T01:42:30.179Z,4.34
2017-12-19T01:42:30.779Z,4.34
2017-12-19T01:42:31.378Z,4.36
2017-12-19T01:42:31.979Z,4.33
2017-12-19T01:43:26.458Z,4.29
2017-12-19T01:43:27.056Z,4.28
2017-12-19T01:43:27.658Z,4.33
2017-12-19T01:43:28.257Z,4.43
2017-12-19T01:43:28.855Z,4.40
2017-12-19T01:43:29.455Z,4.36
2017-12-19T01:43:30.054Z,4.34
2017-12-19T01:43:30.654Z,4.36
2017-12-19T01:44:24.145Z,4.33
2017-12-19T01:44:24.708Z,4.36
2017-12-19T01:44:25.308Z,4.34
2017-12-19T01:44:25.908Z,4.37
2017-12-19T01:44:26.507Z,4.39
2017-12-19T01:44:27.109Z,4.40
2017-12-19T01:44:27.708Z,4.42
2017-12-19T01:44:28.309Z,4.39
2017-12-19T01:45:21.765Z,4.26
2017-12-19T01:45:22.363Z,4.37
2017-12-19T01:45:22.959Z,4.39
2017-12-19T01:45:23.563Z,4.40
2017-12-19T01:45:24.160Z,4.40
2017-12-19T01:45:24.760Z,4.37
2017-12-19T01:45:25.360Z,4.40
2017-12-19T01:45:25.961Z,4.40
2017-12-19T01:46:19.415Z,4.39
2017-12-19T01:46:20.013Z,4.46
2017-12-19T01:46:20.613Z,4.46
2017-12-19T01:46:21.213Z,4.46
2017-12-19T01:46:21.815Z,4.46
2017-12-19T01:46:22.411Z,4.46
2017-12-19T01:46:23.010Z,4.47
2017-12-19T01:46:23.611Z,4.46
2017-12-19T01:47:18.095Z,4.46
2017-12-19T01:47:18.686Z,4.43
2017-12-19T01:47:19.288Z,4.39
2017-12-19T01:47:19.886Z,4.44
2017-12-19T01:47:20.488Z,4.44
2017-12-19T01:47:21.087Z,4.50
2017-12-19T01:47:21.687Z,4.43
2017-12-19T01:47:22.286Z,4.46
2017-12-19T01:48:15.744Z,4.47
2017-12-19T01:48:16.403Z,4.40
2017-12-19T01:48:16.940Z,4.39
2017-12-19T01:48:17.539Z,4.37
2017-12-19T01:48:18.139Z,4.47
2017-12-19T01:48:18.739Z,4.43
2017-12-19T01:48:19.338Z,4.42
2017-12-19T01:48:19.941Z,4.42
2017-12-19T01:49:13.397Z,4.37
2017-12-19T01:49:13.992Z,4.50
2017-12-19T01:49:14.591Z,4.54
2017-12-19T01:49:15.192Z,4.51
2017-12-19T01:49:15.793Z,4.55
2017-12-19T01:49:16.391Z,4.54
2017-12-19T01:49:16.992Z,4.50
2017-12-19T01:49:17.592Z,4.50
2017-12-19T01:50:12.102Z,4.50
2017-12-19T01:50:12.667Z,4.54
2017-12-19T01:50:13.266Z,4.51
2017-12-19T01:50:13.880Z,4.55
2017-12-19T01:50:14.465Z,4.62
2017-12-19T01:50:15.067Z,4.54
2017-12-19T01:50:15.666Z,4.54
2017-12-19T01:50:16.267Z,4.58
2017-12-19T01:51:09.724Z,4.47
2017-12-19T01:51:10.321Z,4.58
2017-12-19T01:51:10.918Z,4.59
2017-12-19T01:51:11.518Z,4.65
2017-12-19T01:51:12.120Z,4.58
2017-12-19T01:51:12.719Z,4.59
2017-12-19T01:51:13.318Z,4.57
2017-12-19T01:51:13.918Z,4.58
2017-12-19T01:52:07.887Z,4.61
2017-12-19T01:52:08.482Z,4.65
2017-12-19T01:52:09.082Z,4.58
2017-12-19T01:52:09.681Z,4.57
2017-12-19T01:52:10.282Z,4.65
2017-12-19T01:52:10.881Z,4.58
2017-12-19T01:52:11.481Z,4.62
2017-12-19T01:55:05.475Z,4.64
2017-12-19T01:55:06.066Z,4.67
2017-12-19T01:55:06.666Z,4.70
2017-12-19T01:55:07.267Z,4.65
2017-12-19T01:55:07.865Z,4.69
2017-12-19T01:55:08.464Z,4.69
2017-12-19T01:55:09.064Z,4.69
2017-12-19T01:55:09.666Z,4.64
2017-12-19T01:55:10.263Z,4.64
2017-12-19T01:55:10.865Z,4.76
2017-12-19T01:55:11.462Z,4.65
2017-12-19T01:55:12.065Z,4.65
2017-12-19T01:56:09.166Z,4.67
2017-12-19T01:56:09.739Z,4.65
2017-12-19T01:56:10.337Z,4.72
2017-12-19T01:57:04.849Z,4.75
2017-12-19T01:57:05.455Z,4.72
2017-12-19T01:57:06.046Z,4.76
2017-12-19T01:57:06.682Z,4.70
2017-12-19T01:57:07.245Z,4.65
2017-12-19T01:57:07.848Z,4.72
2017-12-19T01:57:08.444Z,4.73
2017-12-19T01:57:09.045Z,4.64
2017-12-19T01:58:02.502Z,4.73
2017-12-19T01:58:03.098Z,4.67
2017-12-19T01:58:03.697Z,4.69
2017-12-19T01:58:04.297Z,4.70
2017-12-19T01:58:04.899Z,4.67
2017-12-19T01:58:05.498Z,4.76
2017-12-19T01:58:06.097Z,4.70
2017-12-19T01:58:06.698Z,4.75
2017-12-19T01:59:01.688Z,4.88
2017-12-19T01:59:02.284Z,4.76
2017-12-19T01:59:02.884Z,4.72
2017-12-19T01:59:03.484Z,4.77
2017-12-19T01:59:04.083Z,4.84
2017-12-19T01:59:04.685Z,4.75
2017-12-19T01:59:05.293Z,4.84
2017-12-19T01:59:58.829Z,4.79
2017-12-19T01:59:59.426Z,4.77
2017-12-19T02:00:00.026Z,4.84
2017-12-19T02:00:00.625Z,4.77
2017-12-19T02:00:01.224Z,4.77
2017-12-19T02:00:01.827Z,4.79
2017-12-19T02:00:02.424Z,4.83
2017-12-19T02:00:03.024Z,4.83
2017-12-19T02:00:56.505Z,4.80
2017-12-19T02:00:57.077Z,4.83
2017-12-19T02:00:57.677Z,4.86
2017-12-19T02:00:58.278Z,4.86
2017-12-19T02:00:58.890Z,4.86
2017-12-19T02:00:59.475Z,4.83
2017-12-19T02:01:00.075Z,4.79
2017-12-19T02:01:00.675Z,4.84
2017-12-19T02:01:55.154Z,4.80
2017-12-19T02:01:55.752Z,4.89
2017-12-19T02:01:56.355Z,4.91
2017-12-19T02:01:56.952Z,4.89
2017-12-19T02:01:57.551Z,4.80
2017-12-19T02:01:58.152Z,4.88
2017-12-19T02:01:58.755Z,4.94
2017-12-19T02:01:59.351Z,4.88
2017-12-19T02:02:53.838Z,4.89
2017-12-19T02:02:54.430Z,4.91
2017-12-19T02:02:55.027Z,4.88
2017-12-19T02:02:55.626Z,4.88
2017-12-19T02:02:56.228Z,4.86
2017-12-19T02:02:56.829Z,4.86
2017-12-19T02:02:57.427Z,4.86
2017-12-19T02:02:58.025Z,4.80
2017-12-19T02:03:51.484Z,4.92
2017-12-19T02:03:52.085Z,4.92
2017-12-19T02:03:52.680Z,4.94
2017-12-19T02:03:53.282Z,4.92
2017-12-19T02:03:53.880Z,4.94
2017-12-19T02:03:54.479Z,4.92
2017-12-19T02:03:55.077Z,4.92
2017-12-19T02:03:55.678Z,4.92
2017-12-19T02:04:49.134Z,4.86
2017-12-19T02:04:49.732Z,4.92
2017-12-19T02:04:50.333Z,4.98
2017-12-19T02:04:50.933Z,4.91
2017-12-19T02:04:51.531Z,4.92
2017-12-19T02:04:52.130Z,4.95
2017-12-19T02:04:52.733Z,4.96
2017-12-19T02:04:53.331Z,4.92
2017-12-19T02:05:46.818Z,4.95
2017-12-19T02:05:47.382Z,4.96
2017-12-19T02:05:47.984Z,4.92
2017-12-19T02:05:48.586Z,4.96
2017-12-19T02:05:49.180Z,4.95
2017-12-19T02:05:49.781Z,4.92
2017-12-19T02:05:50.380Z,4.96
2017-12-19T02:05:50.980Z,4.96
2017-12-19T02:06:44.438Z,4.94
2017-12-19T02:06:45.035Z,4.95
2017-12-19T02:06:45.633Z,4.96
2017-12-19T02:06:46.235Z,4.99
2017-12-19T02:06:46.834Z,4.94
2017-12-19T02:06:47.433Z,4.98
2017-12-19T02:06:48.032Z,4.95
2017-12-19T02:06:48.632Z,4.98
2017-12-19T02:07:43.113Z,4.95
2017-12-19T02:07:43.710Z,4.98
2017-12-19T02:07:44.308Z,4.91
2017-12-19T02:07:44.911Z,4.95
2017-12-19T02:07:45.510Z,4.95
2017-12-19T02:07:46.109Z,4.94
2017-12-19T02:07:46.710Z,4.95
2017-12-19T02:07:47.309Z,5.02
2017-12-19T02:08:41.796Z,4.96
2017-12-19T02:08:42.386Z,4.96
2017-12-19T02:08:42.985Z,4.94
2017-12-19T02:08:43.585Z,4.95
2017-12-19T02:08:44.184Z,4.96
2017-12-19T02:08:44.785Z,4.96
2017-12-19T02:08:45.383Z,5.01
2017-12-19T02:08:45.983Z,4.98
2017-12-19T02:09:39.441Z,5.01
2017-12-19T02:09:40.053Z,4.99
2017-12-19T02:09:40.638Z,5.05
2017-12-19T02:09:41.238Z,4.96
2017-12-19T02:09:41.838Z,5.01
2017-12-19T02:09:42.444Z,4.96
2017-12-19T02:09:43.036Z,4.99
2017-12-19T02:09:43.638Z,5.02
2017-12-19T02:10:38.117Z,4.96
2017-12-19T02:10:38.711Z,4.99
2017-12-19T02:10:39.313Z,5.04
2017-12-19T02:10:39.913Z,5.02
2017-12-19T02:10:40.511Z,5.01
2017-12-19T02:10:41.111Z,5.02
2017-12-19T02:10:41.711Z,4.96
2017-12-19T02:10:42.310Z,4.99
2017-12-19T02:11:36.823Z,5.01
2017-12-19T02:11:37.387Z,4.94
2017-12-19T02:11:37.987Z,4.98
2017-12-19T02:11:38.589Z,4.98
2017-12-19T02:11:39.188Z,4.99
2017-12-19T02:11:39.789Z,5.07
2017-12-19T02:11:40.387Z,4.96
2017-12-19T02:11:40.987Z,5.05
2017-12-19T02:12:34.443Z,4.99
2017-12-19T02:12:35.039Z,5.13
2017-12-19T02:12:35.696Z,5.09
2017-12-19T02:12:36.242Z,5.01
2017-12-19T02:12:36.839Z,5.10
2017-12-19T02:12:37.439Z,4.95
2017-12-19T02:12:38.039Z,5.07
2017-12-19T02:12:38.639Z,5.09
2017-12-19T02:13:32.095Z,5.10
2017-12-19T02:13:32.692Z,5.07
2017-12-19T02:13:33.291Z,5.12
2017-12-19T02:13:33.891Z,5.14
2017-12-19T02:13:34.492Z,5.09
2017-12-19T02:13:35.090Z,5.16
2017-12-19T02:13:35.691Z,5.14
2017-12-19T02:13:36.290Z,5.14
2017-12-19T02:14:37.323Z,5.10
2017-12-19T02:14:37.919Z,5.02
2017-12-19T02:14:38.519Z,5.05
2017-12-19T02:14:39.120Z,4.98
2017-12-19T02:14:39.781Z,5.10
2017-12-19T02:14:40.318Z,5.02
2017-12-19T02:14:40.920Z,5.02
2017-12-19T02:14:41.518Z,5.02
2017-12-19T02:14:42.118Z,5.01
2017-12-19T02:14:42.717Z,5.02
2017-12-19T02:14:43.320Z,5.09
2017-12-19T02:14:43.917Z,4.99
2017-12-19T02:15:38.971Z,5.05
2017-12-19T02:15:39.576Z,5.22
2017-12-19T02:15:40.166Z,5.13
2017-12-19T02:15:40.764Z,5.10
2017-12-19T02:15:41.363Z,5.04
2017-12-19T02:15:41.962Z,5.14
2017-12-19T02:16:36.006Z,5.09
2017-12-19T02:16:36.608Z,5.12
2017-12-19T02:16:37.203Z,5.20
2017-12-19T02:16:37.804Z,5.17
2017-12-19T02:16:38.404Z,5.20
2017-12-19T02:16:39.005Z,5.09
2017-12-19T02:16:39.603Z,5.14
2017-12-19T02:16:40.203Z,5.12
2017-12-19T02:17:33.691Z,5.14
2017-12-19T02:17:34.261Z,5.14
2017-12-19T02:17:34.855Z,5.12
2017-12-19T02:17:35.461Z,5.10
2017-12-19T02:17:36.055Z,5.14
2017-12-19T02:17:36.655Z,5.10
2017-12-19T02:17:37.256Z,5.14
2017-12-19T02:17:37.855Z,5.12
2017-12-19T02:18:32.333Z,5.17
2017-12-19T02:18:32.937Z,5.14
2017-12-19T02:18:33.531Z,5.13
2017-12-19T02:18:34.129Z,5.12
2017-12-19T02:18:34.730Z,5.09
2017-12-19T02:18:35.333Z,5.13
2017-12-19T02:18:35.930Z,5.12
2017-12-19T02:18:36.528Z,5.10
2017-12-19T02:19:31.010Z,5.14
2017-12-19T02:19:31.610Z,5.12
2017-12-19T02:19:32.207Z,5.17
2017-12-19T02:19:32.805Z,5.13
2017-12-19T02:19:33.425Z,5.12
2017-12-19T02:19:34.007Z,5.12
2017-12-19T02:19:34.605Z,5.16
2017-12-19T02:19:35.209Z,5.13
2017-12-19T02:20:28.662Z,5.12
2017-12-19T02:20:29.261Z,5.10
2017-12-19T02:20:29.857Z,5.23
2017-12-19T02:20:30.458Z,5.20
2017-12-19T02:20:31.059Z,5.23
2017-12-19T02:20:31.659Z,5.20
2017-12-19T02:20:32.305Z,5.19
2017-12-19T02:20:32.858Z,5.20
2017-12-19T02:21:27.337Z,5.20
2017-12-19T02:21:27.943Z,5.17
2017-12-19T02:21:28.534Z,5.16
2017-12-19T02:21:29.133Z,5.14
2017-12-19T02:21:29.733Z,5.28
2017-12-19T02:21:30.336Z,5.28
2017-12-19T02:21:30.933Z,5.25
2017-12-19T02:21:31.531Z,5.25
2017-12-19T02:22:26.018Z,5.14
2017-12-19T02:22:26.608Z,5.13
2017-12-19T02:22:27.208Z,5.20
2017-12-19T02:22:27.808Z,5.28
2017-12-19T02:22:28.408Z,5.19
2017-12-19T02:22:29.009Z,5.20
2017-12-19T02:22:29.608Z,5.25
2017-12-19T02:22:30.208Z,5.22
2017-12-19T02:23:24.711Z,5.14
2017-12-19T02:23:25.287Z,5.25
2017-12-19T02:23:25.886Z,5.16
2017-12-19T02:23:26.486Z,5.22
2017-12-19T02:23:27.086Z,5.17
2017-12-19T02:23:27.685Z,5.22
2017-12-19T02:23:28.284Z,5.25
2017-12-19T02:23:28.884Z,5.27
2017-12-19T02:24:22.340Z,5.20
2017-12-19T02:24:22.936Z,5.20
2017-12-19T02:24:23.536Z,5.25
2017-12-19T02:24:24.136Z,5.25
2017-12-19T02:24:24.736Z,5.20
2017-12-19T02:24:25.338Z,5.16
2017-12-19T02:24:25.936Z,5.16
2017-12-19T02:24:26.536Z,5.28
2017-12-19T02:25:21.019Z,5.22
2017-12-19T02:25:21.612Z,5.16
2017-12-19T02:25:22.213Z,5.22
2017-12-19T02:25:22.819Z,5.17
2017-12-19T02:25:23.414Z,5.19
2017-12-19T02:25:24.011Z,5.22
2017-12-19T02:25:24.614Z,5.16
2017-12-19T02:25:25.211Z,5.16
2017-12-19T02:26:19.690Z,5.25
2017-12-19T02:26:20.298Z,5.25
2017-12-19T02:26:20.886Z,5.14
2017-12-19T02:26:21.486Z,5.19
2017-12-19T02:26:22.093Z,5.30
2017-12-19T02:26:22.687Z,5.23
2017-12-19T02:26:23.287Z,5.25
2017-12-19T02:26:23.890Z,5.20
2017-12-19T02:27:18.368Z,5.17
2017-12-19T02:27:18.962Z,5.25
2017-12-19T02:27:19.563Z,5.20
2017-12-19T02:27:20.163Z,5.23
2017-12-19T02:27:20.764Z,5.30
2017-12-19T02:27:21.360Z,5.20
2017-12-19T02:27:21.961Z,5.20
2017-12-19T02:27:22.560Z,5.22
2017-12-19T02:28:17.091Z,5.14
2017-12-19T02:28:17.642Z,5.17
2017-12-19T02:28:18.239Z,5.16
2017-12-19T02:28:18.839Z,5.22
2017-12-19T02:28:19.440Z,5.17
2017-12-19T02:28:20.040Z,5.16
2017-12-19T02:28:20.640Z,5.16
2017-12-19T02:28:21.238Z,5.25
2017-12-19T02:29:14.799Z,5.17
2017-12-19T02:29:15.636Z,5.23
2017-12-19T02:29:15.996Z,5.25
2017-12-19T02:29:16.595Z,5.20
2017-12-19T02:29:17.211Z,5.14
2017-12-19T02:29:17.803Z,5.30
2017-12-19T02:29:18.409Z,5.25
2017-12-19T02:29:19.050Z,5.22
2017-12-19T02:30:12.961Z,5.19
2017-12-19T02:30:13.557Z,5.17
2017-12-19T02:30:14.158Z,5.25
2017-12-19T02:30:14.758Z,5.16
2017-12-19T02:30:15.357Z,5.19
2017-12-19T02:30:15.956Z,5.13
2017-12-19T02:30:16.558Z,5.12
2017-12-19T02:31:10.103Z,5.22
2017-12-19T02:31:10.700Z,5.30
2017-12-19T02:31:11.299Z,5.31
2017-12-19T02:31:11.897Z,5.25
2017-12-19T02:31:12.500Z,5.31
2017-12-19T02:31:13.097Z,5.30
2017-12-19T02:31:13.705Z,5.28
2017-12-19T02:31:14.297Z,5.25
2017-12-19T02:32:08.777Z,5.19
2017-12-19T02:32:09.377Z,5.20
2017-12-19T02:32:09.973Z,5.22
2017-12-19T02:32:10.572Z,5.37
2017-12-19T02:32:11.171Z,5.22
2017-12-19T02:32:11.772Z,5.23
2017-12-19T02:32:12.372Z,5.22
2017-12-19T02:32:12.972Z,5.34
2017-12-19T02:33:07.483Z,5.27
2017-12-19T02:33:08.048Z,5.28
2017-12-19T02:33:08.648Z,5.22
2017-12-19T02:33:09.249Z,5.30
2017-12-19T02:33:09.847Z,5.31
2017-12-19T02:33:10.450Z,5.31
2017-12-19T02:33:11.046Z,5.31
2017-12-19T02:33:11.645Z,5.31
2017-12-19T02:52:35.249Z,5.01
2017-12-19T02:52:35.822Z,5.17
2017-12-19T02:52:36.422Z,5.05
2017-12-19T02:52:37.025Z,5.10
2017-12-19T02:52:37.622Z,5.10
2017-12-19T02:52:38.221Z,5.10
2017-12-19T02:52:38.829Z,5.14
2017-12-19T02:52:39.419Z,5.10
2017-12-19T02:53:32.879Z,5.09
2017-12-19T02:53:33.474Z,5.01
2017-12-19T02:53:34.073Z,5.04
2017-12-19T02:53:34.674Z,5.02
2017-12-19T02:53:35.275Z,5.04
2017-12-19T02:53:35.874Z,5.01
2017-12-19T02:53:36.475Z,5.05
2017-12-19T02:53:37.075Z,5.02
2017-12-19T02:54:31.554Z,5.04
2017-12-19T02:54:32.150Z,5.14
2017-12-19T02:54:32.752Z,5.17
2017-12-19T02:54:33.350Z,5.09
2017-12-19T02:54:33.949Z,5.10
2017-12-19T02:54:34.549Z,5.10
2017-12-19T02:54:35.148Z,5.16
2017-12-19T02:54:35.749Z,5.13
2017-12-19T02:55:29.240Z,5.13
2017-12-19T02:55:29.802Z,5.19
2017-12-19T02:55:30.404Z,5.10
2017-12-19T02:55:31.002Z,5.04
2017-12-19T02:55:31.603Z,5.13
2017-12-19T02:55:32.202Z,5.05
2017-12-19T02:55:32.802Z,5.14
2017-12-19T02:55:33.401Z,5.07
2017-12-19T02:56:27.881Z,5.14
2017-12-19T02:56:28.477Z,5.01
2017-12-19T02:56:29.081Z,5.01
2017-12-19T02:56:29.679Z,5.01
2017-12-19T02:56:30.277Z,5.16
2017-12-19T02:56:30.876Z,5.16
2017-12-19T02:56:31.475Z,5.12
2017-12-19T02:56:32.077Z,5.14
2017-12-19T02:57:26.561Z,5.07
2017-12-19T02:57:27.155Z,5.07
2017-12-19T02:57:27.755Z,4.99
2017-12-19T02:57:28.353Z,5.07
2017-12-19T02:57:28.962Z,5.09
2017-12-19T02:57:29.553Z,5.04
2017-12-19T02:57:30.154Z,5.09
2017-12-19T02:57:30.753Z,5.07
2017-12-19T02:58:25.746Z,5.04
2017-12-19T02:58:26.342Z,5.14
2017-12-19T02:58:26.942Z,4.99
2017-12-19T02:58:27.543Z,5.14
2017-12-19T02:58:28.142Z,4.99
2017-12-19T02:58:28.743Z,4.99
2017-12-19T02:58:29.341Z,5.13
2017-12-19T02:59:23.808Z,5.02
2017-12-19T02:59:24.407Z,5.05
2017-12-19T02:59:25.003Z,4.95
2017-12-19T02:59:25.603Z,5.05
2017-12-19T02:59:26.207Z,5.04
2017-12-19T02:59:26.803Z,5.10
2017-12-19T02:59:27.405Z,5.07
2017-12-19T02:59:28.002Z,5.10
2017-12-19T03:00:21.459Z,4.99
2017-12-19T03:00:22.060Z,5.12
2017-12-19T03:00:22.656Z,5.04
2017-12-19T03:00:23.258Z,5.14
2017-12-19T03:00:23.855Z,5.02
2017-12-19T03:00:24.455Z,5.09
2017-12-19T03:00:25.057Z,5.04
2017-12-19T03:00:25.657Z,5.17
2017-12-19T03:01:20.166Z,5.02
2017-12-19T03:01:20.731Z,4.91
2017-12-19T03:01:21.331Z,4.99
2017-12-19T03:01:21.931Z,5.02
2017-12-19T03:01:22.530Z,5.05
2017-12-19T03:01:23.130Z,4.99
2017-12-19T03:01:23.772Z,5.02
2017-12-19T03:01:24.330Z,5.04
2017-12-19T03:02:18.819Z,5.04
2017-12-19T03:02:19.406Z,5.10
2017-12-19T03:02:20.006Z,5.04
2017-12-19T03:02:20.607Z,5.09
2017-12-19T03:02:21.206Z,5.05
2017-12-19T03:02:21.806Z,4.99
2017-12-19T03:02:22.405Z,5.09
2017-12-19T03:02:23.007Z,4.99
2017-12-19T03:03:17.486Z,5.10
2017-12-19T03:03:18.082Z,5.14
2017-12-19T03:03:18.688Z,5.05
2017-12-19T03:03:19.283Z,5.04
2017-12-19T03:03:19.882Z,5.07
2017-12-19T03:03:20.482Z,5.07
2017-12-19T03:03:21.082Z,5.05
2017-12-19T03:03:21.682Z,5.07
2017-12-19T03:04:16.161Z,5.16
2017-12-19T03:04:16.758Z,4.98
2017-12-19T03:04:17.362Z,5.02
2017-12-19T03:04:17.959Z,5.07
2017-12-19T03:04:18.559Z,5.02
2017-12-19T03:04:19.158Z,5.10
2017-12-19T03:04:19.757Z,5.04
2017-12-19T03:04:20.358Z,5.16
2017-12-19T03:05:13.817Z,5.02
2017-12-19T03:05:14.415Z,5.10
2017-12-19T03:05:15.011Z,5.12
2017-12-19T03:05:15.613Z,5.07
2017-12-19T03:05:16.210Z,5.14
2017-12-19T03:05:16.811Z,5.04
2017-12-19T03:05:17.412Z,5.13
2017-12-19T03:05:18.011Z,5.10
2017-12-19T03:06:12.489Z,5.05
2017-12-19T03:06:13.089Z,5.17
2017-12-19T03:06:13.686Z,5.14
2017-12-19T03:06:14.286Z,5.17
2017-12-19T03:06:14.884Z,5.02
2017-12-19T03:06:15.486Z,5.20
2017-12-19T03:06:16.085Z,5.17
2017-12-19T03:06:16.692Z,5.12
2017-12-19T03:07:11.197Z,5.12
2017-12-19T03:07:11.761Z,5.17
2017-12-19T03:07:12.362Z,5.20
2017-12-19T03:07:12.967Z,5.17
2017-12-19T03:07:13.561Z,5.14
2017-12-19T03:07:14.160Z,5.13
2017-12-19T03:07:14.775Z,5.10
2017-12-19T03:07:15.360Z,5.17
2017-12-19T03:08:08.905Z,5.09
2017-12-19T03:08:09.416Z,5.17
2017-12-19T03:08:10.014Z,5.17
2017-12-19T03:08:10.614Z,5.16
2017-12-19T03:08:11.214Z,5.14
2017-12-19T03:08:11.817Z,5.12
2017-12-19T03:08:12.413Z,5.10
2017-12-19T03:08:13.012Z,5.19
2017-12-19T03:09:06.559Z,5.12
2017-12-19T03:09:07.069Z,5.20
2017-12-19T03:09:07.667Z,5.13
2017-12-19T03:09:08.265Z,5.16
2017-12-19T03:09:08.867Z,5.14
2017-12-19T03:09:09.467Z,5.09
2017-12-19T03:09:10.064Z,5.13
2017-12-19T03:09:10.665Z,5.14
2017-12-19T03:10:04.209Z,5.07
2017-12-19T03:10:04.719Z,5.12
2017-12-19T03:10:05.318Z,5.16
2017-12-19T03:10:05.919Z,5.12
2017-12-19T03:10:06.519Z,5.20
2017-12-19T03:10:07.120Z,5.13
2017-12-19T03:10:07.717Z,5.13
2017-12-19T03:10:08.355Z,5.16
2017-12-19T03:11:02.861Z,5.17
2017-12-19T03:11:03.392Z,5.10
2017-12-19T03:11:03.993Z,5.16
2017-12-19T03:11:04.592Z,5.16
2017-12-19T03:11:05.192Z,5.10
2017-12-19T03:11:05.795Z,5.10
2017-12-19T03:11:06.391Z,5.10
2017-12-19T03:11:06.993Z,5.12
2017-12-19T03:12:01.536Z,5.10
2017-12-19T03:12:02.071Z,5.13
2017-12-19T03:12:02.669Z,5.14
2017-12-19T03:12:03.280Z,5.19
2017-12-19T03:12:03.915Z,5.14
2017-12-19T03:12:04.497Z,5.14
2017-12-19T03:12:05.085Z,5.13
2017-12-19T03:12:05.709Z,5.16
2017-12-19T03:12:59.237Z,5.16
2017-12-19T03:12:59.741Z,5.23
2017-12-19T03:13:00.341Z,5.22
2017-12-19T03:13:00.940Z,5.19
2017-12-19T03:13:01.543Z,5.17
2017-12-19T03:13:02.157Z,5.23
2017-12-19T03:13:02.738Z,5.20
2017-12-19T03:13:03.338Z,5.19
2017-12-19T03:13:57.799Z,5.28
2017-12-19T03:13:58.397Z,5.25
2017-12-19T03:13:58.995Z,5.20
2017-12-19T03:13:59.594Z,5.23
2017-12-19T03:14:00.194Z,5.14
2017-12-19T03:14:00.796Z,5.20
2017-12-19T03:14:01.397Z,5.30
2017-12-19T03:14:01.995Z,5.31
2017-12-19T03:14:56.539Z,5.25
2017-12-19T03:14:57.074Z,5.19
2017-12-19T03:14:57.671Z,5.25
2017-12-19T03:14:58.272Z,5.32
2017-12-19T03:14:58.871Z,5.23
2017-12-19T03:14:59.471Z,5.32
2017-12-19T03:15:00.070Z,5.32
2017-12-19T03:15:00.671Z,5.32
2017-12-19T03:15:55.153Z,5.32
2017-12-19T03:15:55.749Z,5.25
2017-12-19T03:15:56.346Z,5.19
2017-12-19T03:15:56.947Z,5.30
2017-12-19T03:15:57.547Z,5.32
2017-12-19T03:15:58.146Z,5.27
2017-12-19T03:15:58.745Z,5.27
2017-12-19T03:15:59.346Z,5.28
2017-12-19T03:16:53.826Z,5.27
2017-12-19T03:16:54.429Z,5.27
2017-12-19T03:16:55.022Z,5.31
2017-12-19T03:16:55.622Z,5.31
2017-12-19T03:16:56.222Z,5.31
2017-12-19T03:16:56.821Z,5.38
2017-12-19T03:16:57.421Z,5.32
2017-12-19T03:16:58.021Z,5.25
2017-12-19T03:17:52.591Z,5.28
2017-12-19T03:17:53.100Z,5.27
2017-12-19T03:17:53.699Z,5.38
2017-12-19T03:17:54.300Z,5.31
2017-12-19T03:17:54.898Z,5.37
2017-12-19T03:17:55.503Z,5.31
2017-12-19T03:17:56.097Z,5.27
2017-12-19T03:17:56.697Z,5.27
2017-12-19T03:18:51.241Z,5.30
2017-12-19T03:18:51.777Z,5.30
2017-12-19T03:18:52.373Z,5.34
2017-12-19T03:18:52.979Z,5.32
2017-12-19T03:18:53.572Z,5.35
2017-12-19T03:18:54.174Z,5.34
2017-12-19T03:18:54.773Z,5.35
2017-12-19T03:18:55.373Z,5.32
2017-12-19T03:19:48.829Z,5.40
2017-12-19T03:19:49.428Z,5.43
2017-12-19T03:19:50.090Z,5.37
2017-12-19T03:19:50.627Z,5.37
2017-12-19T03:19:51.226Z,5.38
2017-12-19T03:19:51.825Z,5.40
2017-12-19T03:19:52.426Z,5.34
2017-12-19T03:19:53.025Z,5.37
2017-12-19T03:20:46.571Z,5.38
2017-12-19T03:20:47.079Z,5.43
2017-12-19T03:20:47.678Z,5.37
2017-12-19T03:20:48.279Z,5.37
2017-12-19T03:20:48.877Z,5.35
2017-12-19T03:20:49.479Z,5.41
2017-12-19T03:20:50.077Z,5.37
2017-12-19T03:20:50.677Z,5.30
2017-12-19T03:21:44.137Z,5.32
2017-12-19T03:21:44.730Z,5.30
2017-12-19T03:21:45.330Z,5.31
2017-12-19T03:21:45.931Z,5.35
2017-12-19T03:21:46.530Z,5.38
2017-12-19T03:21:47.130Z,5.30
2017-12-19T03:21:47.729Z,5.40
2017-12-19T03:21:48.328Z,5.34
2017-12-19T03:22:41.909Z,5.37
2017-12-19T03:22:42.413Z,5.31
2017-12-19T03:22:43.012Z,5.31
2017-12-19T03:22:43.612Z,5.30
2017-12-19T03:22:44.212Z,5.38
2017-12-19T03:22:44.811Z,5.41
2017-12-19T03:22:45.411Z,5.30
2017-12-19T03:22:46.013Z,5.34
2017-12-19T03:23:39.540Z,5.38
2017-12-19T03:23:40.136Z,5.37
2017-12-19T03:23:40.735Z,5.37
2017-12-19T03:23:41.334Z,5.37
2017-12-19T03:23:41.934Z,5.35
2017-12-19T03:23:42.534Z,5.30
2017-12-19T03:23:43.135Z,5.41
2017-12-19T03:23:43.735Z,5.40
2017-12-19T03:24:38.215Z,5.50
2017-12-19T03:24:38.811Z,5.37
2017-12-19T03:24:39.411Z,5.35
2017-12-19T03:24:40.009Z,5.34
2017-12-19T03:24:40.610Z,5.41
2017-12-19T03:24:41.209Z,5.40
2017-12-19T03:24:41.809Z,5.34
2017-12-19T03:24:42.410Z,5.35
2017-12-19T03:25:35.866Z,5.35
2017-12-19T03:25:36.464Z,5.37
2017-12-19T03:25:37.063Z,5.45
2017-12-19T03:25:37.665Z,5.35
2017-12-19T03:25:38.263Z,5.38
2017-12-19T03:25:38.862Z,5.40
2017-12-19T03:25:39.462Z,5.46
2017-12-19T03:25:40.063Z,5.40
2017-12-19T03:26:34.542Z,5.38
2017-12-19T03:26:35.146Z,5.32
2017-12-19T03:26:35.739Z,5.40
2017-12-19T03:26:36.338Z,5.50
2017-12-19T03:26:36.940Z,5.40
2017-12-19T03:26:37.538Z,5.37
2017-12-19T03:26:38.138Z,5.48
2017-12-19T03:26:38.739Z,5.38
2017-12-19T03:27:32.195Z,5.35
2017-12-19T03:27:32.794Z,5.48
2017-12-19T03:27:33.390Z,5.46
2017-12-19T03:27:33.990Z,5.49
2017-12-19T03:27:34.590Z,5.35
2017-12-19T03:27:35.191Z,5.48
2017-12-19T03:27:35.788Z,5.37
2017-12-19T03:27:36.392Z,5.49
2017-12-19T03:28:30.958Z,5.35
2017-12-19T03:28:31.466Z,5.35
2017-12-19T03:28:32.064Z,5.40
2017-12-19T03:28:32.663Z,5.43
2017-12-19T03:28:33.264Z,5.40
2017-12-19T03:28:33.877Z,5.50
2017-12-19T03:28:34.464Z,5.50
2017-12-19T03:28:35.063Z,5.45
2017-12-19T03:29:29.608Z,5.50
2017-12-19T03:29:30.145Z,5.37
2017-12-19T03:29:30.740Z,5.46
2017-12-19T03:29:31.340Z,5.46
2017-12-19T03:29:31.942Z,5.38
2017-12-19T03:29:32.542Z,5.43
2017-12-19T03:29:33.148Z,5.38
2017-12-19T03:29:33.742Z,5.49
2017-12-19T03:30:27.197Z,5.35
2017-12-19T03:30:27.796Z,5.37
2017-12-19T03:30:28.395Z,5.48
2017-12-19T03:30:28.995Z,5.49
2017-12-19T03:30:29.593Z,5.43
2017-12-19T03:30:30.196Z,5.35
2017-12-19T03:30:30.793Z,5.43
2017-12-19T03:30:31.394Z,5.46
2017-12-19T03:31:24.850Z,5.34
2017-12-19T03:31:25.451Z,5.49
2017-12-19T03:31:26.047Z,5.52
2017-12-19T03:31:26.645Z,5.46
2017-12-19T03:31:27.245Z,5.45
2017-12-19T03:31:27.849Z,5.40
2017-12-19T03:31:28.446Z,5.35
2017-12-19T03:31:29.044Z,5.43
2017-12-19T03:32:22.589Z,5.43
2017-12-19T03:32:23.098Z,5.38
2017-12-19T03:32:23.714Z,5.38
2017-12-19T03:32:24.296Z,5.38
2017-12-19T03:32:24.897Z,5.49
2017-12-19T03:32:25.497Z,5.48
2017-12-19T03:32:26.096Z,5.34
2017-12-19T03:32:26.696Z,5.35
2017-12-19T03:33:20.185Z,5.38
2017-12-19T03:33:20.749Z,5.49
2017-12-19T03:33:21.349Z,5.37
2017-12-19T03:33:21.948Z,5.34
2017-12-19T03:33:22.548Z,5.48
2017-12-19T03:33:23.149Z,5.40
2017-12-19T03:33:23.747Z,5.50
2017-12-19T03:33:24.346Z,5.37
2017-12-19T03:34:17.803Z,5.38
2017-12-19T03:34:18.404Z,5.48
2017-12-19T03:34:18.999Z,5.53
2017-12-19T03:34:19.599Z,5.49
2017-12-19T03:34:20.198Z,5.49
2017-12-19T03:34:20.801Z,5.35
2017-12-19T03:34:21.399Z,5.45
2017-12-19T03:34:22.014Z,5.52
2017-12-19T03:35:15.543Z,5.35
2017-12-19T03:35:16.053Z,5.43